Fedhaven, Florida
Current Conditions -  °F | °C
As of 6:15 PM on Friday 31 Oct 2014 (Local Time) from KBOW Reporting Station
Clear Clear  
Wind Chill: 72°   Ceiling: Unl
Heat Index: 72°   Visibility: 10mi
Dew Point: 43°   Wind: 13mph
Humidity: 35%   Direction: 290°WNW
Pressure: 29.85"   Gusts: NA
Location:  27.86°N, 81.41°W
Report Text: KBOW 312215Z AUTO 29011KT 10SM CLR 22/06 A2985 RMK AO2
Loading
Personal Weather Stations






























Interactive Weather Map New forecast layout! Learn more

10-Day Weather Forecast

Advertisements
Track Severe Weather on mobile